Time;durP1;ratioP1;P1;durP2;ratioP2;P2;SDS_P1;SDS_P2;PMS_P1;PMS_P2;Temp;Humidity;BMP_temperature;BMP_pressure;BME280_temperature;BME280_humidity;BME280_pressure;Samples;Min_cycle;Max_cycle;Signal;HPM_P1;HPM_P2
2023/09/09 00:00:05;;;;;;;5.88;3.75;;;;;;;18.96;51.78;98112.53;10432657;28;20049;-70
2023/09/09 00:05:51;;;;;;;6.45;3.25;;;;;;;18.87;51.83;98109.38;10440118;28;20045;-70
2023/09/09 00:11:12;;;;;;;6.10;3.28;;;;;;;18.82;52.00;98118.34;10417503;28;20048;-70
2023/09/09 00:16:34;;;;;;;4.82;3.30;;;;;;;18.71;52.34;98107.97;10399956;28;20069;-69
2023/09/09 00:21:55;;;;;;;7.47;3.90;;;;;;;18.64;52.42;98095.66;10397108;28;20087;-70
2023/09/09 00:27:16;;;;;;;5.40;3.45;;;;;;;18.56;52.73;98096.06;10424053;28;20045;-70
2023/09/09 00:32:37;;;;;;;7.20;3.63;;;;;;;18.50;52.64;98089.41;10410990;28;20104;-70
2023/09/09 00:37:58;;;;;;;5.97;3.75;;;;;;;18.41;53.13;98094.00;10421118;28;20071;-70
2023/09/09 00:43:19;;;;;;;4.15;3.10;;;;;;;18.37;52.98;98093.09;10401932;28;20061;-70
2023/09/09 00:48:40;;;;;;;6.85;3.45;;;;;;;18.32;53.12;98080.88;10423997;28;20091;-70
2023/09/09 00:54:01;;;;;;;5.95;3.50;;;;;;;18.24;53.40;98083.41;10423678;28;20766;-70
2023/09/09 00:59:22;;;;;;;5.07;3.53;;;;;;;18.17;53.68;98088.03;10396120;28;20045;-70
2023/09/09 01:04:43;;;;;;;6.50;3.55;;;;;;;18.07;53.73;98078.41;10406745;28;20071;-70
2023/09/09 01:10:04;;;;;;;5.97;3.55;;;;;;;18.02;53.92;98083.88;10395825;28;20060;-70
2023/09/09 01:15:25;;;;;;;7.13;4.03;;;;;;;17.97;54.00;98082.25;10422677;28;20111;-70
2023/09/09 01:21:07;;;;;;;5.95;3.72;;;;;;;17.82;54.50;98070.94;10421290;28;20091;-70
2023/09/09 01:26:27;;;;;;;5.43;3.55;;;;;;;17.78;54.77;98070.78;10423171;28;20064;-69
2023/09/09 01:31:48;;;;;;;7.63;4.00;;;;;;;17.74;54.79;98077.69;10408752;28;20560;-70
2023/09/09 01:37:09;;;;;;;6.78;3.75;;;;;;;17.64;55.04;98073.66;10374053;28;20116;-70
2023/09/09 01:42:30;;;;;;;8.32;3.58;;;;;;;17.48;55.36;98081.41;10387007;28;20037;-70
2023/09/09 01:47:51;;;;;;;6.55;3.78;;;;;;;17.35;55.81;98080.81;10387478;28;20495;-70
2023/09/09 01:53:13;;;;;;;7.82;3.42;;;;;;;17.17;56.42;98079.97;10387056;28;20091;-69
2023/09/09 01:58:34;;;;;;;5.93;3.58;;;;;;;17.07;56.66;98076.69;10373069;28;20130;-71
2023/09/09 02:03:55;;;;;;;7.68;3.72;;;;;;;16.94;56.88;98080.28;10400733;28;20125;-71
2023/09/09 02:09:16;;;;;;;9.60;3.78;;;;;;;16.82;57.17;98081.16;10373008;28;20048;-71
2023/09/09 02:14:36;;;;;;;4.90;3.60;;;;;;;16.70;57.32;98080.59;10372993;28;20044;-70
2023/09/09 02:19:57;;;;;;;4.78;3.40;;;;;;;16.56;58.09;98074.94;10372691;28;20045;-71
2023/09/09 02:25:18;;;;;;;4.38;3.35;;;;;;;16.53;58.06;98069.84;10386217;28;20069;-70
2023/09/09 02:30:43;;;;;;;7.38;3.72;;;;;;;16.46;58.47;98082.16;10372578;28;20460;-71
2023/09/09 02:36:03;;;;;;;5.20;3.35;;;;;;;16.38;58.78;98078.94;10385983;28;20499;-71
2023/09/09 02:41:24;;;;;;;6.75;3.20;;;;;;;16.28;58.95;98084.78;10426175;28;20483;-73
2023/09/09 02:46:45;;;;;;;4.72;3.70;;;;;;;16.16;59.18;98079.28;10412971;28;20072;-71
2023/09/09 02:52:06;;;;;;;5.68;3.83;;;;;;;16.00;59.58;98065.09;10426544;28;20048;-70
2023/09/09 02:57:27;;;;;;;8.55;3.78;;;;;;;15.90;60.04;98070.19;10445640;28;20115;-70
2023/09/09 03:02:49;;;;;;;7.45;3.92;;;;;;;15.88;60.22;98072.19;10447491;28;20131;-71
2023/09/09 03:08:10;;;;;;;5.03;3.80;;;;;;;15.87;60.71;98079.16;10475459;28;20048;-71
2023/09/09 03:13:31;;;;;;;7.68;3.90;;;;;;;15.85;60.70;98081.88;10461345;28;20047;-71
2023/09/09 03:18:52;;;;;;;6.35;3.78;;;;;;;15.82;60.89;98078.22;10475459;28;20064;-70
2023/09/09 03:24:13;;;;;;;7.75;4.25;;;;;;;15.76;61.31;98072.28;10447494;28;20070;-71
2023/09/09 03:29:34;;;;;;;8.10;4.55;;;;;;;15.77;61.47;98076.56;10458665;28;20068;-71
2023/09/09 03:34:54;;;;;;;6.72;4.40;;;;;;;15.71;61.83;98085.41;10474508;28;20039;-71
2023/09/09 03:40:15;;;;;;;6.97;4.45;;;;;;;15.65;61.96;98082.28;10448608;28;20396;-71
2023/09/09 03:45:37;;;;;;;7.13;4.38;;;;;;;15.60;62.35;98086.22;10405710;28;20061;-71
2023/09/09 03:50:59;;;;;;;8.48;4.75;;;;;;;15.54;62.56;98077.44;10432941;28;20064;-71
2023/09/09 03:56:20;;;;;;;6.97;5.05;;;;;;;15.50;62.99;98084.94;10433128;28;20502;-71
2023/09/09 04:01:41;;;;;;;9.38;5.10;;;;;;;15.39;63.20;98073.13;10432413;28;20053;-70
2023/09/09 04:07:05;;;;;;;8.68;4.45;;;;;;;15.31;63.73;98078.31;10410033;28;20471;-71
2023/09/09 04:12:26;;;;;;;8.85;5.15;;;;;;;15.24;64.00;98084.22;10440032;28;20071;-70
2023/09/09 04:17:47;;;;;;;8.07;4.72;;;;;;;15.20;64.17;98086.81;10425455;28;20497;-71
2023/09/09 04:23:16;;;;;;;6.57;4.90;;;;;;;15.11;64.58;98080.75;10426634;28;20045;-70
2023/09/09 04:28:39;;;;;;;6.57;4.88;;;;;;;15.04;64.80;98093.00;10445256;28;20041;-71
2023/09/09 04:34:00;;;;;;;7.80;5.35;;;;;;;15.02;65.02;98101.31;10432026;28;20122;-70
2023/09/09 04:39:22;;;;;;;7.03;5.13;;;;;;;15.01;65.29;98097.06;10420988;28;20068;-64
2023/09/09 04:44:43;;;;;;;6.80;5.20;;;;;;;15.21;65.59;98097.44;10442208;28;20068;-64
2023/09/09 04:50:04;;;;;;;5.90;5.03;;;;;;;15.55;65.41;98101.41;10405473;28;20092;-64
2023/09/09 04:55:25;;;;;;;7.53;5.40;;;;;;;15.98;65.57;98106.50;10383175;28;20455;-65
2023/09/09 05:00:45;;;;;;;8.98;5.30;;;;;;;16.54;65.54;98102.28;10430780;28;20445;-63
2023/09/09 05:06:07;;;;;;;9.25;4.72;;;;;;;17.26;65.17;98107.19;10457467;28;20085;-63
2023/09/09 05:11:28;;;;;;;6.75;4.93;;;;;;;21.05;61.93;98108.09;10457524;28;20155;-63
2023/09/09 05:16:48;;;;;;;9.43;5.50;;;;;;;26.24;54.19;98116.69;10456883;28;20179;-63
2023/09/09 05:22:10;;;;;;;9.32;5.30;;;;;;;30.13;47.55;98115.38;10456338;28;20045;-63
2023/09/09 05:27:31;;;;;;;8.55;5.40;;;;;;;33.27;42.09;98116.41;10438021;28;20124;-65
2023/09/09 05:32:52;;;;;;;7.40;4.93;;;;;;;35.81;37.15;98123.91;10452011;28;20076;-64
2023/09/09 05:38:13;;;;;;;7.32;4.35;;;;;;;37.94;32.42;98121.56;10457178;28;20136;-65
2023/09/09 05:43:34;;;;;;;4.43;4.03;;;;;;;39.06;26.73;98126.00;10457129;28;20554;-65
2023/09/09 05:48:55;;;;;;;7.07;4.13;;;;;;;39.50;22.31;98132.91;10442078;28;20125;-66
2023/09/09 05:54:16;;;;;;;8.10;4.32;;;;;;;40.18;20.68;98124.13;10441628;28;20065;-67
2023/09/09 05:59:38;;;;;;;6.03;4.50;;;;;;;42.11;19.06;98123.38;10441719;28;20514;-66
2023/09/09 06:05:00;;;;;;;8.07;4.50;;;;;;;42.86;16.98;98127.31;10441465;28;20061;-67
2023/09/09 06:10:21;;;;;;;8.52;4.60;;;;;;;44.87;15.79;98131.97;10441323;28;20068;-67
2023/09/09 06:15:42;;;;;;;6.15;4.07;;;;;;;45.94;14.25;98141.00;10439925;28;20554;-67
2023/09/09 06:21:03;;;;;;;11.05;4.72;;;;;;;48.30;12.17;98132.31;10441312;28;20088;-67
2023/09/09 06:26:23;;;;;;;6.07;3.78;;;;;;;50.77;10.24;98135.84;10455098;28;20064;-67
2023/09/09 06:31:44;;;;;;;7.28;3.78;;;;;;;52.01;9.16;98144.38;10461806;28;20077;-67
2023/09/09 06:37:09;;;;;;;5.80;3.35;;;;;;;53.81;8.41;98133.25;10448917;28;20083;-68
2023/09/09 06:42:30;;;;;;;4.45;2.90;;;;;;;54.72;7.73;98131.84;10462175;28;20069;-68
2023/09/09 06:47:53;;;;;;;4.82;2.92;;;;;;;56.51;6.65;98132.84;10461092;28;20141;-68
2023/09/09 06:53:14;;;;;;;6.43;2.85;;;;;;;56.68;6.06;98144.34;10462817;28;20065;-68
2023/09/09 06:58:35;;;;;;;6.03;2.88;;;;;;;56.09;5.96;98142.13;10463423;28;20175;-68
2023/09/09 07:03:56;;;;;;;8.25;2.67;;;;;;;56.42;6.14;98144.38;10485434;28;20132;-68
2023/09/09 07:09:16;;;;;;;3.28;2.50;;;;;;;56.89;5.27;98147.97;10504551;28;20048;-67
2023/09/09 07:14:37;;;;;;;3.70;2.17;;;;;;;58.13;4.37;98145.13;10504263;28;20178;-67
2023/09/09 07:20:02;;;;;;;3.23;2.10;;;;;;;57.35;4.87;98136.44;10504076;28;20117;-67
2023/09/09 07:25:23;;;;;;;2.75;1.90;;;;;;;57.23;4.65;98143.88;10503722;28;20301;-68
2023/09/09 07:30:45;;;;;;;6.53;2.20;;;;;;;55.28;5.54;98142.19;10503459;28;20048;-68
2023/09/09 07:36:06;;;;;;;3.58;1.98;;;;;;;56.09;5.59;98133.13;10503581;28;20048;-68
2023/09/09 07:41:27;;;;;;;4.43;2.05;;;;;;;56.75;4.70;98135.31;10502481;28;20044;-68
2023/09/09 07:46:48;;;;;;;5.85;2.30;;;;;;;56.88;5.04;98137.59;10488075;28;20049;-68
2023/09/09 07:52:08;;;;;;;5.75;2.15;;;;;;;57.49;4.17;98137.06;10503114;28;20055;-68
2023/09/09 07:57:29;;;;;;;5.85;2.33;;;;;;;57.62;4.34;98133.28;10502592;28;20048;-68
2023/09/09 08:02:50;;;;;;;4.22;2.30;;;;;;;58.39;4.48;98138.88;10502535;28;20368;-69
2023/09/09 08:08:13;;;;;;;4.90;2.28;;;;;;;58.63;4.26;98131.44;10502090;28;20051;-68
2023/09/09 08:13:33;;;;;;;2.38;2.17;;;;;;;58.24;4.39;98138.56;10487093;28;20080;-68
2023/09/09 08:18:55;;;;;;;6.93;2.60;;;;;;;60.27;3.58;98139.03;10502031;28;20110;-68
2023/09/09 08:24:16;;;;;;;3.92;2.67;;;;;;;61.08;2.75;98133.50;10501615;28;20044;-68
2023/09/09 08:29:37;;;;;;;6.53;2.92;;;;;;;61.49;2.96;98137.69;10501284;28;20054;-68
2023/09/09 08:34:59;;;;;;;5.60;3.45;;;;;;;61.60;2.56;98140.69;10501129;28;20063;-68
2023/09/09 08:40:20;;;;;;;4.10;3.42;;;;;;;60.56;3.39;98142.66;10501057;28;20167;-68
2023/09/09 08:45:59;;;;;;;;;;;;;;;59.48;3.51;98135.69;10501167;28;20044;-68
2023/09/09 08:51:41;;;;;;;6.20;3.65;;;;;;;58.41;4.01;98135.63;10485622;28;20015;-68
2023/09/09 08:57:03;;;;;;;;;;;;;;;58.11;4.17;98134.06;10500707;28;20060;-68
2023/09/09 09:02:24;;;;;;;5.00;3.15;;;;;;;57.84;4.34;98135.91;10499859;28;19928;-68
2023/09/09 09:07:45;;;;;;;3.90;3.40;;;;;;;56.17;4.65;98135.19;10499436;28;20049;-68
2023/09/09 09:13:07;;;;;;;3.03;2.80;;;;;;;56.42;5.21;98135.41;10499649;28;20130;-68
2023/09/09 09:18:28;;;;;;;4.15;3.10;;;;;;;56.14;4.77;98122.06;10499407;28;20051;-68
2023/09/09 09:23:49;;;;;;;3.30;3.00;;;;;;;56.24;5.35;98120.19;10499290;28;20110;-68
2023/09/09 09:29:10;;;;;;;6.75;3.13;;;;;;;56.02;5.46;98111.47;10498799;28;20063;-68
2023/09/09 09:34:34;;;;;;;5.13;3.22;;;;;;;56.71;5.10;98106.50;10483874;28;20091;-68
2023/09/09 09:39:55;;;;;;;4.60;3.47;;;;;;;56.11;5.58;98105.94;10498407;28;20060;-68
2023/09/09 09:45:17;;;;;;;4.93;3.25;;;;;;;56.29;5.57;98100.19;10498449;28;20048;-68
2023/09/09 09:50:40;;;;;;;6.78;3.38;;;;;;;54.80;5.82;98101.78;10483535;28;20044;-68
2023/09/09 09:56:02;;;;;;;4.03;3.50;;;;;;;55.75;5.74;98098.13;10480567;28;20059;-68
2023/09/09 10:01:23;;;;;;;4.27;3.97;;;;;;;56.07;5.67;98090.75;10482623;28;20040;-69
2023/09/09 10:06:45;;;;;;;4.20;3.90;;;;;;;55.17;5.91;98085.13;10482284;28;20056;-68
2023/09/09 10:12:10;;;;;;;;;;;;;;;56.67;5.24;98086.03;10498220;28;20052;-69
2023/09/09 10:17:32;;;;;;;6.22;4.22;;;;;;;56.50;5.28;98086.53;10482668;28;19990;-68
2023/09/09 10:22:59;;;;;;;6.03;3.53;;;;;;;55.92;5.62;98073.72;10482695;28;20056;-67
2023/09/09 10:28:20;;;;;;;5.35;3.03;;;;;;;55.03;5.55;98073.16;10482465;28;20048;-68
2023/09/09 10:33:45;;;;;;;4.00;3.10;;;;;;;55.88;5.62;98068.16;10497120;28;20053;-68
2023/09/09 10:39:06;;;;;;;5.47;3.08;;;;;;;54.22;6.03;98058.03;10468582;28;20052;-68
2023/09/09 10:44:28;;;;;;;4.43;2.50;;;;;;;54.49;6.23;98058.88;10496762;28;20056;-68
2023/09/09 10:49:49;;;;;;;2.72;2.50;;;;;;;53.99;6.05;98045.47;10481997;28;20041;-69
2023/09/09 10:55:11;;;;;;;6.05;2.63;;;;;;;51.94;7.31;98049.06;10467887;28;20048;-69
2023/09/09 11:00:40;;;;;;;3.88;2.15;;;;;;;51.69;7.65;98050.00;10496894;28;20389;-68
2023/09/09 11:06:06;;;;;;;10.02;2.00;;;;;;;52.93;6.68;98052.72;10467673;28;20406;-68
2023/09/09 11:11:35;;;;;;;4.10;1.80;;;;;;;52.68;6.99;98047.81;10496374;28;20480;-68
2023/09/09 11:16:57;;;;;;;2.00;1.60;;;;;;;52.97;7.06;98045.63;10499015;28;20076;-67
2023/09/09 11:22:18;;;;;;;3.28;1.60;;;;;;;50.45;7.78;98043.72;10503352;28;20056;-68
2023/09/09 11:27:40;;;;;;;3.72;1.92;;;;;;;49.99;8.17;98040.34;10503595;28;20497;-67
2023/09/09 11:33:02;;;;;;;3.17;1.50;;;;;;;48.50;8.70;98038.19;10503827;28;20044;-67
2023/09/09 11:38:23;;;;;;;4.07;1.60;;;;;;;48.00;8.62;98034.16;10503353;28;20049;-66
2023/09/09 11:43:46;;;;;;;2.20;2.00;;;;;;;45.31;9.88;98036.34;10503199;28;20045;-67
2023/09/09 11:49:07;;;;;;;3.88;2.50;;;;;;;40.65;13.37;98045.91;10503004;28;20182;-66
2023/09/09 11:54:29;;;;;;;6.75;2.60;;;;;;;36.68;17.09;98034.13;10502705;28;20054;-64
2023/09/09 11:59:51;;;;;;;5.35;2.40;;;;;;;35.10;19.47;98039.41;10502228;28;20550;-66
2023/09/09 12:05:16;;;;;;;4.20;3.00;;;;;;;34.10;20.46;98032.38;10502259;28;20410;-64
2023/09/09 12:10:37;;;;;;;5.53;2.90;;;;;;;32.83;21.87;98033.31;10502001;28;20098;-64
2023/09/09 12:15:58;;;;;;;4.65;2.55;;;;;;;32.86;21.91;98020.28;10486989;28;20452;-63
2023/09/09 12:21:26;;;;;;;5.38;2.90;;;;;;;32.28;23.79;98031.25;10501857;28;20128;-64
2023/09/09 12:26:52;;;;;;;4.88;2.78;;;;;;;31.76;24.17;98027.63;10501321;28;20056;-64
2023/09/09 12:32:14;;;;;;;3.53;2.92;;;;;;;32.19;24.10;98025.56;10501185;28;20098;-63
2023/09/09 12:37:36;;;;;;;5.18;2.67;;;;;;;32.23;23.75;98018.31;10471937;28;20075;-63
2023/09/09 12:42:57;;;;;;;5.63;3.15;;;;;;;31.82;24.32;98016.00;10500648;28;20422;-63
2023/09/09 12:48:18;;;;;;;3.53;2.88;;;;;;;31.49;25.71;98018.53;10500895;28;20057;-64
2023/09/09 12:53:39;;;;;;;4.82;2.97;;;;;;;31.14;26.02;98023.94;10485435;28;20119;-63
2023/09/09 12:59:01;;;;;;;4.18;2.97;;;;;;;31.13;25.92;98008.78;10499984;28;20048;-64
2023/09/09 13:04:22;;;;;;;6.22;2.78;;;;;;;31.05;26.04;98009.59;10471478;28;20376;-63
2023/09/09 13:09:43;;;;;;;5.93;2.47;;;;;;;31.14;25.55;98003.75;10484450;28;20475;-64
2023/09/09 13:15:04;;;;;;;5.07;3.10;;;;;;;30.85;26.43;98004.03;10499119;28;20053;-63
2023/09/09 13:20:25;;;;;;;8.18;2.88;;;;;;;30.66;26.59;98005.63;10499013;28;20048;-63
2023/09/09 13:25:47;;;;;;;6.65;3.00;;;;;;;30.35;27.05;98005.84;10498883;28;20044;-64
2023/09/09 13:31:08;;;;;;;4.57;3.30;;;;;;;30.46;27.01;98001.44;10498432;28;20052;-63
2023/09/09 13:36:29;;;;;;;5.20;3.13;;;;;;;30.85;27.11;97995.38;10483404;28;20505;-64
2023/09/09 13:41:50;;;;;;;3.42;2.78;;;;;;;30.69;27.03;97992.63;10497502;28;20057;-63
2023/09/09 13:47:12;;;;;;;5.90;2.95;;;;;;;31.00;27.16;97982.28;10469387;28;20478;-63
2023/09/09 13:52:33;;;;;;;8.70;3.67;;;;;;;31.14;27.44;97989.34;10498279;28;20052;-64
2023/09/09 13:57:54;;;;;;;6.20;4.43;;;;;;;31.01;27.66;97986.59;10480084;28;20051;-63
2023/09/09 14:03:15;;;;;;;7.03;3.60;;;;;;;31.05;27.29;97980.06;10497495;28;20056;-63
2023/09/09 14:08:37;;;;;;;4.43;2.67;;;;;;;30.76;28.12;97979.59;10497389;28;20056;-63
2023/09/09 14:13:59;;;;;;;5.10;2.75;;;;;;;31.15;27.96;97962.66;10468989;28;20089;-63
2023/09/09 14:19:21;;;;;;;;;;;;;;;30.74;27.79;97954.41;10497801;28;20045;-64
2023/09/09 14:24:42;;;;;;;4.32;3.72;;;;;;;30.49;28.42;97953.88;10497115;28;19927;-63
2023/09/09 14:30:04;;;;;;;4.68;3.00;;;;;;;30.12;28.87;97964.28;10482449;28;20057;-63
2023/09/09 14:35:26;;;;;;;;;;;;;;;29.90;28.51;97950.69;10497554;28;20514;-63
2023/09/09 14:40:47;;;;;;;5.43;3.08;;;;;;;29.83;28.85;97949.31;10496890;28;19990;-63
2023/09/09 14:46:09;;;;;;;3.47;2.83;;;;;;;29.83;28.90;97949.31;10497212;28;20052;-63
2023/09/09 14:51:32;;;;;;;6.03;3.15;;;;;;;29.74;28.94;97948.66;10500508;28;20049;-63
2023/09/09 14:56:53;;;;;;;8.48;2.97;;;;;;;29.60;29.20;97943.66;10504707;28;20405;-63
2023/09/09 15:02:15;;;;;;;5.65;3.08;;;;;;;29.55;28.85;97945.16;10489665;28;20155;-63
2023/09/09 15:07:37;;;;;;;5.72;2.63;;;;;;;29.46;28.32;97948.75;10504448;28;20076;-63
2023/09/09 15:12:59;;;;;;;3.22;2.53;;;;;;;29.48;27.84;97940.84;10489231;28;20040;-64
2023/09/09 15:18:20;;;;;;;3.10;2.70;;;;;;;29.42;27.62;97943.00;10504147;28;20156;-63
2023/09/09 15:23:42;;;;;;;4.43;2.95;;;;;;;29.30;27.56;97947.38;10503528;28;20120;-63
2023/09/09 15:29:05;;;;;;;5.30;2.75;;;;;;;29.16;27.84;97943.84;10503881;28;20075;-63
2023/09/09 15:34:26;;;;;;;3.58;2.55;;;;;;;29.08;27.58;97945.28;10488146;28;20051;-64
2023/09/09 15:39:48;;;;;;;3.80;2.33;;;;;;;29.02;27.91;97945.31;10503130;28;20052;-64
2023/09/09 15:45:09;;;;;;;5.70;2.80;;;;;;;28.99;27.81;97948.91;10488154;28;20320;-63
2023/09/09 15:50:31;;;;;;;3.00;2.23;;;;;;;28.95;27.94;97937.41;10474021;28;20106;-64
2023/09/09 15:55:52;;;;;;;5.00;2.90;;;;;;;28.89;28.05;97941.03;10502469;28;20049;-63
2023/09/09 16:01:13;;;;;;;4.30;2.30;;;;;;;28.75;28.17;97933.13;10501919;28;20056;-64
2023/09/09 16:06:34;;;;;;;3.30;2.23;;;;;;;28.54;28.82;97937.47;10418217;28;20546;-63
2023/09/09 16:11:56;;;;;;;5.87;2.60;;;;;;;28.46;28.91;97938.16;10419304;28;20053;-63
2023/09/09 16:17:17;;;;;;;3.00;2.33;;;;;;;28.34;29.09;97931.72;10418726;28;20073;-63
2023/09/09 16:22:38;;;;;;;4.10;2.72;;;;;;;28.20;29.70;97938.16;10418766;28;20132;-63
2023/09/09 16:28:00;;;;;;;5.30;2.83;;;;;;;28.11;29.59;97936.72;10417854;28;20073;-63
2023/09/09 16:33:22;;;;;;;7.68;3.17;;;;;;;27.90;30.51;97939.56;10418488;28;20046;-63
2023/09/09 16:38:43;;;;;;;;;;;;;;;27.75;30.45;97940.94;10418921;28;20096;-62
2023/09/09 16:44:05;;;;;;;4.32;2.60;;;;;;;27.58;30.76;97936.56;10418151;28;20036;-63
2023/09/09 16:49:28;;;;;;;7.55;2.75;;;;;;;27.45;31.20;97938.69;10417267;28;20407;-63
2023/09/09 16:54:49;;;;;;;4.38;2.90;;;;;;;27.28;30.98;97937.88;10417890;28;20244;-63
2023/09/09 17:00:11;;;;;;;5.35;3.17;;;;;;;27.09;31.38;97945.69;10418050;28;20128;-63
2023/09/09 17:05:32;;;;;;;4.85;3.28;;;;;;;26.93;31.30;97934.13;10487215;28;20052;-63
2023/09/09 17:10:53;;;;;;;5.13;3.90;;;;;;;26.79;31.88;97943.34;10499825;28;20115;-63
2023/09/09 17:16:15;;;;;;;4.57;3.53;;;;;;;26.58;32.23;97943.91;10498730;28;20075;-63
2023/09/09 17:21:37;;;;;;;6.30;3.38;;;;;;;26.38;32.09;97942.31;10499616;28;20071;-63
2023/09/09 17:26:58;;;;;;;5.72;3.60;;;;;;;26.12;32.98;97945.66;10499388;28;20055;-63
2023/09/09 17:32:19;;;;;;;8.88;4.28;;;;;;;25.85;32.91;97953.25;10498953;28;20097;-63
2023/09/09 17:37:41;;;;;;;6.38;3.38;;;;;;;25.61;33.57;97956.53;10483855;28;20044;-63
2023/09/09 17:43:02;;;;;;;7.72;4.43;;;;;;;25.45;33.83;97964.19;10483379;28;20067;-63
2023/09/09 17:48:24;;;;;;;4.78;3.38;;;;;;;25.26;34.29;97960.38;10498400;28;20040;-63
2023/09/09 17:53:45;;;;;;;6.90;3.97;;;;;;;25.05;34.85;97959.41;10498617;28;20047;-63
2023/09/09 17:59:06;;;;;;;6.60;4.00;;;;;;;24.89;34.92;97967.69;10498133;28;20482;-63
2023/09/09 18:04:28;;;;;;;6.90;4.18;;;;;;;24.70;35.62;97964.56;10498496;28;20102;-63
2023/09/09 18:09:49;;;;;;;7.25;4.03;;;;;;;24.50;35.67;97979.25;10497834;28;20059;-63
2023/09/09 18:15:10;;;;;;;5.05;4.20;;;;;;;24.31;36.23;97986.06;10498374;28;20045;-63
2023/09/09 18:20:31;;;;;;;5.72;3.72;;;;;;;24.22;36.50;97990.16;10482213;28;20095;-62
2023/09/09 18:25:56;;;;;;;6.55;3.78;;;;;;;24.06;37.00;97987.75;10497345;28;20044;-62
2023/09/09 18:31:19;;;;;;;7.97;5.07;;;;;;;23.92;37.31;97993.88;10469329;28;20502;-62
2023/09/09 18:36:40;;;;;;;9.95;3.92;;;;;;;23.79;37.34;97997.94;10497336;28;20068;-63
2023/09/09 18:42:01;;;;;;;8.45;4.72;;;;;;;23.74;37.97;97995.66;10497138;28;20044;-63
2023/09/09 18:47:22;;;;;;;10.25;4.38;;;;;;;23.59;38.22;98000.38;10496949;28;20098;-63
2023/09/09 18:52:43;;;;;;;9.10;4.93;;;;;;;23.47;38.59;98000.09;10482095;28;20084;-62
2023/09/09 18:58:03;;;;;;;7.47;4.88;;;;;;;23.33;39.12;97997.66;10481771;28;20076;-62
2023/09/09 19:03:24;;;;;;;6.35;4.45;;;;;;;23.24;39.29;98004.59;10481503;28;20356;-62
2023/09/09 19:08:45;;;;;;;10.15;4.72;;;;;;;23.12;40.09;98010.75;10482002;28;20480;-62
2023/09/09 19:14:06;;;;;;;5.82;4.40;;;;;;;23.02;39.87;98019.06;10496486;28;20094;-63
2023/09/09 19:19:27;;;;;;;7.55;5.07;;;;;;;22.96;40.06;98013.94;10496444;28;20086;-62
2023/09/09 19:24:48;;;;;;;10.13;4.82;;;;;;;22.92;40.32;98027.38;10496458;28;20497;-62
2023/09/09 19:30:13;;;;;;;6.18;4.30;;;;;;;22.94;40.54;98024.56;10496914;28;20055;-62
2023/09/09 19:35:35;;;;;;;9.25;5.10;;;;;;;22.88;40.88;98016.63;10496039;28;20205;-63
2023/09/09 19:40:55;;;;;;;10.27;4.88;;;;;;;22.79;41.16;98015.69;10503044;28;20193;-62
2023/09/09 19:46:16;;;;;;;10.95;5.07;;;;;;;22.56;41.62;98020.09;10488383;28;20060;-63
2023/09/09 19:51:37;;;;;;;10.07;5.22;;;;;;;22.43;42.04;98021.19;10503151;28;20064;-62
2023/09/09 19:56:58;;;;;;;8.05;4.90;;;;;;;22.32;42.45;98010.97;10503018;28;20071;-62
2023/09/09 20:02:18;;;;;;;9.52;4.90;;;;;;;22.22;42.73;98024.91;10502737;28;20140;-62
2023/09/09 20:07:39;;;;;;;9.55;5.20;;;;;;;22.16;43.18;98021.91;10502367;28;20048;-62
2023/09/09 20:13:01;;;;;;;8.45;4.65;;;;;;;22.13;43.42;98023.25;10502214;28;20479;-62
2023/09/09 20:18:22;;;;;;;8.95;4.43;;;;;;;22.11;43.36;98020.38;10502086;28;20064;-62
2023/09/09 20:23:43;;;;;;;9.65;4.60;;;;;;;22.02;43.82;98016.56;10501761;28;20174;-62
2023/09/09 20:29:05;;;;;;;7.53;4.82;;;;;;;21.93;44.30;98018.44;10501555;28;20086;-62
2023/09/09 20:34:26;;;;;;;6.20;4.47;;;;;;;21.92;44.48;98017.00;10501528;28;20186;-62
2023/09/09 20:39:46;;;;;;;8.45;4.70;;;;;;;21.92;44.17;98019.84;10500997;28;20299;-62
2023/09/09 20:45:08;;;;;;;7.68;4.85;;;;;;;21.96;44.48;98019.22;10500799;28;20091;-62
2023/09/09 20:50:32;;;;;;;9.43;4.55;;;;;;;21.91;44.46;98021.25;10500433;28;20052;-62
2023/09/09 20:55:54;;;;;;;7.05;4.55;;;;;;;21.80;45.07;98021.59;10500566;28;20508;-62
2023/09/09 21:01:15;;;;;;;8.48;4.60;;;;;;;21.65;44.86;98021.22;10500483;28;20083;-62
2023/09/09 21:06:35;;;;;;;5.57;4.32;;;;;;;21.50;45.29;98022.19;10500000;28;20036;-62
2023/09/09 21:11:56;;;;;;;7.55;4.22;;;;;;;21.32;45.52;98016.72;10499981;28;20151;-62
2023/09/09 21:17:17;;;;;;;10.75;4.75;;;;;;;21.18;46.07;98019.09;10470672;28;20048;-62
2023/09/09 21:22:38;;;;;;;7.10;4.22;;;;;;;21.12;46.32;98024.59;10499404;28;20467;-62
2023/09/09 21:27:58;;;;;;;11.07;4.50;;;;;;;21.03;46.54;98026.44;10499009;28;20083;-62
2023/09/09 21:33:20;;;;;;;7.05;4.40;;;;;;;20.88;47.11;98018.91;10498874;28;20080;-61
2023/09/09 21:38:44;;;;;;;6.93;4.72;;;;;;;20.82;47.07;98024.38;10498895;28;20592;-61
2023/09/09 21:44:05;;;;;;;7.78;4.70;;;;;;;20.77;47.40;98023.53;10498692;28;20119;-61
2023/09/09 21:49:26;;;;;;;8.05;4.95;;;;;;;20.76;47.09;98033.44;10483771;28;20141;-62
2023/09/09 21:54:47;;;;;;;10.10;4.85;;;;;;;20.75;47.84;98031.97;10498240;28;20072;-61
2023/09/09 22:00:22;;;;;;;7.35;4.47;;;;;;;20.76;47.94;98032.72;10497743;28;20044;-61
2023/09/09 22:05:43;;;;;;;6.25;4.15;;;;;;;20.72;48.08;98033.28;10498184;28;20098;-61
2023/09/09 22:11:05;;;;;;;8.27;4.65;;;;;;;20.70;48.18;98038.91;10497902;28;20052;-61
2023/09/09 22:16:26;;;;;;;9.80;4.93;;;;;;;20.69;48.46;98028.94;10497931;28;20491;-61
2023/09/09 22:21:47;;;;;;;6.18;4.38;;;;;;;20.64;48.09;98021.66;10497660;28;20467;-61
2023/09/09 22:27:08;;;;;;;7.55;4.82;;;;;;;20.54;48.67;98024.19;10497610;28;20045;-61
2023/09/09 22:32:28;;;;;;;5.78;4.57;;;;;;;20.44;48.96;98021.00;10497242;28;20124;-61
2023/09/09 22:37:49;;;;;;;6.80;4.88;;;;;;;20.35;49.42;98022.09;10482146;28;20111;-61
2023/09/09 22:43:11;;;;;;;8.40;5.18;;;;;;;20.29;49.55;98023.34;10496886;28;20126;-61
2023/09/09 22:48:31;;;;;;;6.68;4.72;;;;;;;20.23;49.90;98025.97;10496927;28;20072;-61
2023/09/09 22:53:52;;;;;;;8.93;4.82;;;;;;;20.16;50.13;98018.66;10496763;28;20072;-61
2023/09/09 22:59:13;;;;;;;6.45;4.45;;;;;;;20.10;50.11;98026.94;10481579;28;20120;-61
2023/09/09 23:04:34;;;;;;;6.80;4.53;;;;;;;20.04;50.59;98018.22;10527210;22;20144;-63
2023/09/09 23:09:55;;;;;;;7.63;4.80;;;;;;;19.95;50.67;98025.00;10455351;28;20465;-63
2023/09/09 23:15:17;;;;;;;7.55;4.78;;;;;;;19.81;50.93;98019.56;10462835;28;20187;-63
2023/09/09 23:20:38;;;;;;;8.65;4.47;;;;;;;19.73;50.89;98025.66;10462990;28;20037;-63
2023/09/09 23:26:01;;;;;;;10.43;5.03;;;;;;;19.61;51.21;98022.41;10462706;28;20075;-63
2023/09/09 23:31:22;;;;;;;6.22;4.25;;;;;;;19.57;51.37;98013.00;10462648;28;20405;-63
2023/09/09 23:36:43;;;;;;;9.27;4.57;;;;;;;19.53;51.67;98024.91;10462179;28;20075;-63
2023/09/09 23:42:04;;;;;;;7.00;4.95;;;;;;;19.48;52.02;98014.78;10462223;28;20121;-63
2023/09/09 23:47:25;;;;;;;8.52;4.68;;;;;;;19.44;51.79;98020.31;10461900;28;20079;-63
2023/09/09 23:52:46;;;;;;;6.82;4.55;;;;;;;19.37;51.71;98019.34;10446561;28;20079;-63
2023/09/09 23:58:07;;;;;;;9.25;4.55;;;;;;;19.31;52.14;98015.59;10461640;28;20129;-63
